Time;durP1;ratioP1;P1;durP2;ratioP2;P2;SDS_P1;SDS_P2;PMS_P1;PMS_P2;Temp;Humidity;BMP_temperature;BMP_pressure;BME280_temperature;BME280_humidity;BME280_pressure;Samples;Min_cycle;Max_cycle;Signal;HPM_P1;HPM_P2
2023/12/11 00:01:44;;;;;;;36.15;6.88;;;;;;;9.03;100.00;99936.72;5053049;28;20115;-57
2023/12/11 00:04:09;;;;;;;35.00;8.15;;;;;;;9.01;100.00;99925.38;5053135;28;20049;-56
2023/12/11 00:06:35;;;;;;;36.20;7.35;;;;;;;8.99;100.00;99924.69;5053647;28;20033;-57
2023/12/11 00:09:00;;;;;;;37.40;6.93;;;;;;;8.99;100.00;99928.19;5053584;28;20032;-56
2023/12/11 00:11:25;;;;;;;37.17;7.72;;;;;;;8.96;100.00;99936.41;5056598;28;20028;-54
2023/12/11 00:13:51;;;;;;;36.17;6.57;;;;;;;8.97;100.00;99938.06;5056330;28;20025;-53
2023/12/11 00:16:17;;;;;;;35.42;7.22;;;;;;;8.93;100.00;99939.28;5054354;28;20382;-52
2023/12/11 00:18:42;;;;;;;34.60;8.32;;;;;;;8.93;100.00;99934.00;5052346;28;20029;-55
2023/12/11 00:21:08;;;;;;;37.90;7.55;;;;;;;8.95;100.00;99939.16;5054067;28;20037;-55
2023/12/11 00:23:33;;;;;;;37.85;7.07;;;;;;;8.94;100.00;99930.38;5055459;28;20485;-56
2023/12/11 00:25:58;;;;;;;39.55;7.05;;;;;;;8.92;100.00;99942.06;5051539;28;20359;-55
2023/12/11 00:28:24;;;;;;;41.70;8.40;;;;;;;8.92;100.00;99934.13;5056445;28;20455;-56
2023/12/11 00:30:50;;;;;;;38.90;7.65;;;;;;;8.89;100.00;99921.97;5055464;28;20547;-54
2023/12/11 00:33:15;;;;;;;47.05;7.57;;;;;;;8.91;100.00;99925.34;5057108;28;20103;-56
2023/12/11 00:35:40;;;;;;;41.42;7.30;;;;;;;8.92;100.00;99915.59;5055993;28;20031;-57
2023/12/11 00:38:06;;;;;;;43.42;7.78;;;;;;;8.92;100.00;99919.06;5056351;28;20537;-56
2023/12/11 00:40:31;;;;;;;31.98;6.78;;;;;;;8.92;100.00;99913.78;5054869;28;20036;-57
2023/12/11 00:42:56;;;;;;;38.40;6.97;;;;;;;8.92;100.00;99923.53;5055389;28;20020;-57
2023/12/11 00:45:22;;;;;;;40.35;8.05;;;;;;;8.95;100.00;99915.34;5055006;28;20021;-57
2023/12/11 00:47:47;;;;;;;38.25;7.25;;;;;;;8.93;100.00;99925.22;5055318;28;20048;-57
2023/12/11 00:50:12;;;;;;;38.53;7.35;;;;;;;8.92;100.00;99926.19;5048858;28;20040;-57
2023/12/11 00:52:38;;;;;;;43.42;7.93;;;;;;;8.88;100.00;99907.91;5047196;28;20025;-56
2023/12/11 00:55:03;;;;;;;38.97;6.70;;;;;;;8.88;100.00;99910.53;5050239;28;20037;-57
2023/12/11 00:57:29;;;;;;;40.72;8.38;;;;;;;8.89;100.00;99911.38;5047813;28;20057;-58
2023/12/11 00:59:54;;;;;;;41.25;7.63;;;;;;;8.88;100.00;99899.94;5052753;28;20087;-57
2023/12/11 01:02:19;;;;;;;40.10;6.97;;;;;;;8.88;100.00;99893.81;5053360;28;20033;-58
2023/12/11 01:04:45;;;;;;;34.80;6.93;;;;;;;8.87;100.00;99892.13;5049218;28;20083;-58
2023/12/11 01:07:10;;;;;;;40.00;7.45;;;;;;;8.86;100.00;99896.59;5053956;28;20033;-57
2023/12/11 01:09:36;;;;;;;41.15;7.60;;;;;;;8.86;100.00;99896.59;5052974;28;20481;-57
2023/12/11 01:12:02;;;;;;;35.30;7.63;;;;;;;8.86;100.00;99891.31;5052490;28;20382;-56
2023/12/11 01:14:27;;;;;;;39.03;8.27;;;;;;;8.84;100.00;99887.97;5052930;28;20053;-56
2023/12/11 01:16:52;;;;;;;32.85;7.20;;;;;;;8.86;100.00;99885.19;5052398;28;20029;-57
2023/12/11 01:19:18;;;;;;;37.40;7.32;;;;;;;8.84;100.00;99879.16;5052782;28;20107;-57
2023/12/11 01:21:45;;;;;;;42.17;7.45;;;;;;;8.83;100.00;99880.97;5052896;28;20076;-57
2023/12/11 01:24:10;;;;;;;36.85;7.53;;;;;;;8.83;100.00;99880.13;5050350;28;20029;-57
2023/12/11 01:26:36;;;;;;;41.58;6.88;;;;;;;8.84;100.00;99880.00;5052755;28;20100;-57
2023/12/11 01:29:01;;;;;;;40.58;7.50;;;;;;;8.84;100.00;99879.16;5056087;28;20025;-57
2023/12/11 01:31:26;;;;;;;38.38;7.57;;;;;;;8.83;100.00;99880.13;5054267;28;20121;-57
2023/12/11 01:33:52;;;;;;;42.97;8.38;;;;;;;8.83;100.00;99858.97;5056053;28;20048;-57
2023/12/11 01:36:17;;;;;;;37.63;7.63;;;;;;;8.86;100.00;99864.81;5050279;28;20026;-55
2023/12/11 01:38:42;;;;;;;31.80;6.35;;;;;;;8.85;100.00;99859.66;5055277;28;20025;-57
2023/12/11 01:41:08;;;;;;;38.33;7.85;;;;;;;8.84;100.00;99871.22;5056193;28;20052;-56
2023/12/11 01:43:33;;;;;;;41.88;7.25;;;;;;;8.80;100.00;99854.75;5056306;28;20036;-57
2023/12/11 01:46:10;;;;;;;36.30;7.18;;;;;;;8.83;100.00;99854.50;5055504;28;20021;-56
2023/12/11 01:48:36;;;;;;;43.40;7.95;;;;;;;8.86;100.00;99861.34;5056364;28;20044;-57
2023/12/11 01:51:03;;;;;;;32.78;7.30;;;;;;;8.88;100.00;99860.22;5055388;28;20492;-57
2023/12/11 01:53:29;;;;;;;43.63;7.00;;;;;;;8.91;100.00;99851.19;5052887;28;20120;-57
2023/12/11 01:55:54;;;;;;;36.90;6.30;;;;;;;8.92;100.00;99844.09;5051867;28;20056;-57
2023/12/11 01:58:20;;;;;;;35.15;7.07;;;;;;;8.95;100.00;99843.81;5055334;28;20025;-57
2023/12/11 02:00:47;;;;;;;36.85;6.30;;;;;;;8.95;100.00;99836.72;5056362;28;20075;-56
2023/12/11 02:03:12;;;;;;;33.38;6.82;;;;;;;8.97;100.00;99826.00;5055668;28;20120;-57
2023/12/11 02:05:38;;;;;;;39.38;7.15;;;;;;;8.99;100.00;99827.56;5059200;28;20052;-57
2023/12/11 02:08:03;;;;;;;35.38;7.05;;;;;;;8.99;100.00;99822.25;5050278;28;20044;-57
2023/12/11 02:10:29;;;;;;;36.85;6.80;;;;;;;9.01;100.00;99822.09;5054448;28;20460;-57
2023/12/11 02:12:54;;;;;;;41.88;7.43;;;;;;;9.03;100.00;99806.94;5053374;28;20027;-57
2023/12/11 02:15:39;;;;;;;32.53;6.15;;;;;;;9.04;100.00;99812.09;5060201;28;20293;-57
2023/12/11 02:18:06;;;;;;;34.67;6.68;;;;;;;9.07;100.00;99813.63;5055306;28;20075;-57
2023/12/11 02:20:32;;;;;;;38.95;7.20;;;;;;;9.04;100.00;99814.75;5055343;28;20493;-56
2023/12/11 02:23:00;;;;;;;33.70;5.85;;;;;;;9.02;100.00;99816.66;5053761;28;20033;-56
2023/12/11 02:25:27;;;;;;;32.15;6.57;;;;;;;9.03;100.00;99828.13;5052282;28;20043;-57
2023/12/11 02:27:52;;;;;;;34.05;6.10;;;;;;;9.03;100.00;99821.00;5052772;28;20024;-57
2023/12/11 02:30:17;;;;;;;33.28;6.10;;;;;;;9.03;100.00;99814.88;5055416;28;20017;-55
2023/12/11 02:32:43;;;;;;;33.60;6.80;;;;;;;9.01;100.00;99808.84;5054820;28;20021;-55
2023/12/11 02:35:08;;;;;;;37.38;6.70;;;;;;;8.99;100.00;99811.66;5055745;28;20021;-56
2023/12/11 02:37:33;;;;;;;32.33;6.40;;;;;;;9.00;100.00;99801.91;5058401;28;20033;-58
2023/12/11 02:39:59;;;;;;;37.10;6.53;;;;;;;9.02;100.00;99799.94;5059164;28;20154;-58
2023/12/11 02:42:24;;;;;;;39.95;6.32;;;;;;;9.00;100.00;99797.44;5055104;28;20087;-58
2023/12/11 02:44:49;;;;;;;38.63;6.45;;;;;;;9.01;100.00;99793.81;5057602;28;20033;-58
2023/12/11 02:47:15;;;;;;;36.08;7.03;;;;;;;9.02;100.00;99786.69;5054868;28;20025;-58
2023/12/11 02:49:40;;;;;;;30.50;6.15;;;;;;;9.00;100.00;99784.19;5058060;28;20025;-58
2023/12/11 02:52:06;;;;;;;31.63;6.20;;;;;;;9.00;100.00;99783.34;5056876;28;20049;-58
2023/12/11 02:54:31;;;;;;;30.58;6.00;;;;;;;9.00;100.00;99788.66;5057514;28;20150;-58
2023/12/11 02:56:56;;;;;;;29.63;6.18;;;;;;;9.00;100.00;99770.94;5055895;28;20115;-58
2023/12/11 02:59:21;;;;;;;27.00;6.38;;;;;;;9.00;100.00;99763.00;5056243;28;20063;-57
2023/12/11 03:01:47;;;;;;;28.67;5.57;;;;;;;8.99;100.00;99760.47;5053253;28;20025;-57
2023/12/11 03:04:12;;;;;;;28.50;5.68;;;;;;;8.94;100.00;99766.16;5056076;28;20021;-58
2023/12/11 03:06:38;;;;;;;30.83;5.50;;;;;;;8.90;100.00;99756.81;5057964;28;20386;-57
2023/12/11 03:09:03;;;;;;;32.05;6.05;;;;;;;8.87;100.00;99757.91;5053269;28;20080;-58
2023/12/11 03:11:29;;;;;;;31.65;6.57;;;;;;;8.86;100.00;99756.25;5054863;28;20460;-58
2023/12/11 03:13:54;;;;;;;30.67;6.22;;;;;;;8.84;100.00;99747.63;5055470;28;20021;-55
2023/12/11 03:16:20;;;;;;;33.50;6.22;;;;;;;8.84;100.00;99746.75;5054386;28;20023;-55
2023/12/11 03:18:45;;;;;;;34.88;7.35;;;;;;;8.84;100.00;99738.81;5054907;28;20074;-57
2023/12/11 03:21:10;;;;;;;31.40;6.97;;;;;;;8.85;100.00;99721.97;5054350;28;20032;-56
2023/12/11 03:23:38;;;;;;;30.95;6.40;;;;;;;8.83;100.00;99722.09;5056009;28;20036;-57
2023/12/11 03:26:03;;;;;;;35.13;6.28;;;;;;;8.83;100.00;99742.47;5047175;28;20017;-58
2023/12/11 03:28:29;;;;;;;35.90;6.75;;;;;;;8.80;100.00;99742.72;5054220;28;20021;-58
2023/12/11 03:30:54;;;;;;;31.75;6.28;;;;;;;8.84;100.00;99733.53;5055603;28;20494;-58
2023/12/11 03:33:19;;;;;;;35.20;5.70;;;;;;;8.86;100.00;99726.31;5056436;28;20021;-58
2023/12/11 03:35:45;;;;;;;36.55;6.32;;;;;;;8.85;100.00;99737.84;5055288;28;20028;-57
2023/12/11 03:38:10;;;;;;;30.80;5.97;;;;;;;8.89;100.00;99742.75;5056246;28;20501;-57
2023/12/11 03:40:35;;;;;;;31.77;5.82;;;;;;;8.87;100.00;99727.97;5054956;28;20397;-57
2023/12/11 03:43:01;;;;;;;23.23;5.75;;;;;;;8.87;100.00;99739.38;5052566;28;20083;-57
2023/12/11 03:45:26;;;;;;;25.13;5.55;;;;;;;8.85;100.00;99753.75;5055145;28;20024;-57
2023/12/11 03:47:51;;;;;;;25.42;5.25;;;;;;;8.86;100.00;99742.19;5053741;28;20061;-57
2023/12/11 03:50:16;;;;;;;32.42;5.43;;;;;;;8.86;100.00;99740.38;5055867;28;20032;-58
2023/12/11 03:52:42;;;;;;;26.85;5.47;;;;;;;8.86;100.00;99737.72;5052136;28;20025;-58
2023/12/11 03:55:08;;;;;;;22.73;5.18;;;;;;;8.85;100.00;99737.84;5054699;28;20047;-57
2023/12/11 03:57:33;;;;;;;30.13;5.63;;;;;;;8.86;100.00;99739.53;5054377;28;20075;-55
2023/12/11 03:59:58;;;;;;;26.75;5.65;;;;;;;8.87;100.00;99730.59;5052552;28;20390;-55
2023/12/11 04:02:24;;;;;;;29.50;6.35;;;;;;;8.88;100.00;99729.66;5054862;28;20482;-56
2023/12/11 04:04:49;;;;;;;27.02;5.10;;;;;;;8.91;100.00;99729.38;5053331;28;20024;-55
2023/12/11 04:07:15;;;;;;;26.63;4.82;;;;;;;8.88;100.00;99734.94;5054343;28;20355;-55
2023/12/11 04:09:40;;;;;;;27.95;4.75;;;;;;;8.90;100.00;99727.69;5050831;28;20025;-56
2023/12/11 04:12:06;;;;;;;27.17;5.93;;;;;;;8.94;100.00;99737.03;5051354;28;20040;-57
2023/12/11 04:14:31;;;;;;;23.13;5.43;;;;;;;8.94;100.00;99734.38;5054980;28;20112;-60
2023/12/11 04:16:56;;;;;;;23.00;5.63;;;;;;;8.93;100.00;99726.59;5050706;28;20028;-59
2023/12/11 04:19:22;;;;;;;31.10;5.85;;;;;;;8.93;100.00;99729.25;5056673;28;20375;-58
2023/12/11 04:21:47;;;;;;;28.42;5.25;;;;;;;8.91;100.00;99741.78;5053262;28;20074;-58
2023/12/11 04:24:12;;;;;;;29.38;5.80;;;;;;;8.90;100.00;99743.59;5053050;28;20025;-57
2023/12/11 04:26:38;;;;;;;32.08;5.63;;;;;;;8.87;100.00;99727.97;5052869;28;20079;-57
2023/12/11 04:29:03;;;;;;;26.13;5.32;;;;;;;8.85;100.00;99721.97;5055113;28;20028;-57
2023/12/11 04:31:28;;;;;;;29.08;5.85;;;;;;;8.84;100.00;99712.34;5052426;28;20032;-55
2023/12/11 04:33:54;;;;;;;26.65;5.53;;;;;;;8.87;100.00;99714.72;5056571;28;20024;-56
2023/12/11 04:36:19;;;;;;;28.08;5.15;;;;;;;8.84;100.00;99707.03;5055148;28;20474;-58
2023/12/11 04:38:44;;;;;;;30.98;5.60;;;;;;;8.84;100.00;99704.41;5051891;28;20068;-57
2023/12/11 04:41:10;;;;;;;30.75;5.55;;;;;;;8.82;100.00;99698.41;5053012;28;20060;-56
2023/12/11 04:43:36;;;;;;;28.67;6.05;;;;;;;8.78;100.00;99705.78;5050625;28;20036;-57
2023/12/11 04:46:01;;;;;;;27.60;5.35;;;;;;;8.76;100.00;99705.09;5052642;28;20029;-57
2023/12/11 04:48:27;;;;;;;27.80;5.55;;;;;;;8.76;100.00;99709.53;5052397;28;20057;-58
2023/12/11 04:50:52;;;;;;;33.95;5.50;;;;;;;8.75;100.00;99703.41;5052805;28;20033;-58
2023/12/11 04:53:18;;;;;;;28.55;5.20;;;;;;;8.72;100.00;99702.84;5052912;28;20421;-57
2023/12/11 04:55:43;;;;;;;31.27;5.43;;;;;;;8.70;100.00;99709.09;5056144;28;20042;-57
2023/12/11 04:58:08;;;;;;;31.25;5.55;;;;;;;8.69;100.00;99699.50;5051651;28;20029;-57
2023/12/11 05:00:34;;;;;;;27.02;5.50;;;;;;;8.69;100.00;99702.13;5054797;28;20084;-57
2023/12/11 05:02:59;;;;;;;39.28;5.90;;;;;;;8.72;100.00;99703.66;5056097;28;20090;-60
2023/12/11 05:05:24;;;;;;;27.42;5.50;;;;;;;8.68;100.00;99695.16;5055575;28;20049;-59
2023/12/11 05:07:50;;;;;;;26.45;5.85;;;;;;;8.65;100.00;99690.13;5056631;28;20032;-59
2023/12/11 05:10:15;;;;;;;26.98;5.53;;;;;;;8.65;100.00;99698.06;5057176;28;20029;-57
2023/12/11 05:12:40;;;;;;;29.70;6.45;;;;;;;8.67;100.00;99697.94;5053388;28;20025;-58
2023/12/11 05:15:06;;;;;;;24.70;5.07;;;;;;;8.68;100.00;99707.56;5056184;28;20021;-57
2023/12/11 05:17:31;;;;;;;30.48;5.97;;;;;;;8.66;100.00;99714.78;5055591;28;20398;-57
2023/12/11 05:19:57;;;;;;;31.80;5.97;;;;;;;8.66;100.00;99698.91;5047650;28;20049;-56
2023/12/11 05:22:22;;;;;;;35.63;5.78;;;;;;;8.65;100.00;99703.34;5057107;28;20520;-57
2023/12/11 05:24:50;;;;;;;35.05;5.97;;;;;;;8.66;100.00;99706.84;5055891;28;20021;-57
2023/12/11 05:27:15;;;;;;;30.02;6.60;;;;;;;8.66;100.00;99709.47;5056286;28;20021;-56
2023/12/11 05:29:41;;;;;;;31.38;5.75;;;;;;;8.66;100.00;99704.19;5053147;28;20021;-57
2023/12/11 05:32:06;;;;;;;30.45;5.53;;;;;;;8.67;100.00;99711.16;5055800;28;20017;-57
2023/12/11 05:34:31;;;;;;;24.48;4.63;;;;;;;8.67;100.00;99711.16;5052681;28;20064;-57
2023/12/11 05:36:57;;;;;;;29.73;6.30;;;;;;;8.66;100.00;99705.03;5057930;28;20032;-57
2023/12/11 05:39:22;;;;;;;34.63;6.47;;;;;;;8.69;100.00;99703.94;5055430;28;20025;-57
2023/12/11 05:41:47;;;;;;;28.08;5.80;;;;;;;8.67;100.00;99696.13;5055912;28;20489;-56
2023/12/11 05:44:13;;;;;;;27.52;5.80;;;;;;;8.69;100.00;99696.84;5056590;28;20385;-57
2023/12/11 05:46:38;;;;;;;33.10;6.60;;;;;;;8.71;100.00;99699.34;5058515;28;20381;-57
2023/12/11 05:49:04;;;;;;;29.17;5.50;;;;;;;8.72;100.00;99700.19;5053329;28;20050;-57
2023/12/11 05:51:29;;;;;;;24.23;5.32;;;;;;;8.72;100.00;99693.06;5059704;28;20039;-57
2023/12/11 05:53:57;;;;;;;25.10;5.57;;;;;;;8.75;100.00;99692.81;5056481;28;20186;-58
2023/12/11 05:56:23;;;;;;;29.60;5.65;;;;;;;8.76;100.00;99693.63;5056210;28;20054;-58
2023/12/11 05:58:48;;;;;;;29.05;6.50;;;;;;;8.76;100.00;99696.28;5059248;28;20111;-57
2023/12/11 06:01:13;;;;;;;28.75;6.05;;;;;;;8.75;100.00;99684.88;5054551;28;20111;-58
2023/12/11 06:03:39;;;;;;;27.80;5.53;;;;;;;8.77;100.00;99695.31;5055292;28;20033;-58
2023/12/11 06:06:04;;;;;;;23.83;5.30;;;;;;;8.75;100.00;99695.47;5060295;28;20035;-58
2023/12/11 06:08:30;;;;;;;26.40;5.13;;;;;;;8.76;100.00;99688.34;5058098;28;20523;-58
2023/12/11 06:10:55;;;;;;;29.50;5.50;;;;;;;8.77;100.00;99692.69;5056616;28;20032;-58
2023/12/11 06:13:20;;;;;;;26.67;5.43;;;;;;;8.76;100.00;99702.44;5058588;28;20021;-58
2023/12/11 06:15:46;;;;;;;25.30;5.55;;;;;;;8.78;100.00;99699.66;5059398;28;20557;-59
2023/12/11 06:18:11;;;;;;;38.63;5.93;;;;;;;8.74;100.00;99703.53;5053181;28;20104;-58
2023/12/11 06:20:37;;;;;;;25.85;5.05;;;;;;;8.74;100.00;99712.31;5056018;28;20029;-58
2023/12/11 06:23:02;;;;;;;29.50;5.35;;;;;;;8.75;100.00;99705.22;5054131;28;20394;-56
2023/12/11 06:25:27;;;;;;;27.80;5.18;;;;;;;8.76;100.00;99709.53;5055520;28;20082;-56
2023/12/11 06:27:53;;;;;;;32.85;6.47;;;;;;;8.73;100.00;99705.34;5053104;28;20431;-55
2023/12/11 06:30:18;;;;;;;29.90;5.68;;;;;;;8.76;100.00;99714.81;5054078;28;20035;-57
2023/12/11 06:32:44;;;;;;;28.48;5.75;;;;;;;8.76;100.00;99702.44;5061536;28;20354;-56
2023/12/11 06:35:09;;;;;;;26.33;5.80;;;;;;;8.76;100.00;99698.94;5055933;28;20033;-54
2023/12/11 06:37:34;;;;;;;26.95;5.45;;;;;;;8.77;100.00;99706.75;5058782;28;20104;-55
2023/12/11 06:40:00;;;;;;;32.80;6.13;;;;;;;8.78;100.00;99718.19;5057194;28;20025;-56
2023/12/11 06:42:26;;;;;;;29.67;6.15;;;;;;;8.81;100.00;99712.59;5055637;28;20039;-56
2023/12/11 06:44:53;;;;;;;30.30;5.22;;;;;;;8.80;100.00;99708.31;5058184;28;20029;-56
2023/12/11 06:47:18;;;;;;;25.73;5.25;;;;;;;8.83;100.00;99713.34;5054163;28;20083;-57
2023/12/11 06:49:45;;;;;;;27.38;5.07;;;;;;;8.84;100.00;99712.34;5055169;28;20024;-58
2023/12/11 06:52:12;;;;;;;31.52;6.60;;;;;;;8.85;100.00;99725.44;5056168;28;20029;-56
2023/12/11 06:54:38;;;;;;;23.55;4.75;;;;;;;8.86;100.00;99721.00;5047925;28;20021;-56
2023/12/11 06:57:03;;;;;;;23.63;5.07;;;;;;;8.83;100.00;99719.47;5049138;28;20114;-56
2023/12/11 06:59:30;;;;;;;24.17;5.07;;;;;;;8.84;100.00;99723.78;5047615;28;20029;-55
2023/12/11 07:01:55;;;;;;;27.00;4.88;;;;;;;8.83;100.00;99726.56;5046159;28;20044;-55
2023/12/11 07:04:20;;;;;;;28.02;5.35;;;;;;;8.86;100.00;99729.78;5051661;28;20028;-53
2023/12/11 07:06:46;;;;;;;28.65;5.07;;;;;;;8.85;100.00;99729.91;5055493;28;20021;-57
2023/12/11 07:09:11;;;;;;;22.35;4.40;;;;;;;8.84;100.00;99739.69;5049024;28;20112;-56
2023/12/11 07:11:37;;;;;;;28.48;5.25;;;;;;;8.86;100.00;99743.03;5047569;28;20108;-57
2023/12/11 07:14:02;;;;;;;25.77;5.22;;;;;;;8.89;100.00;99739.25;5049354;28;20037;-56
2023/12/11 07:16:27;;;;;;;25.40;5.15;;;;;;;8.87;100.00;99727.97;5047711;28;20060;-53
2023/12/11 07:18:53;;;;;;;25.65;5.10;;;;;;;8.91;100.00;99744.41;5052766;28;20020;-56
2023/12/11 07:21:19;;;;;;;26.00;4.60;;;;;;;8.91;100.00;99739.13;5049319;28;20037;-56
2023/12/11 07:23:47;;;;;;;25.23;4.75;;;;;;;8.90;100.00;99756.81;5043711;28;20503;-58
2023/12/11 07:26:13;;;;;;;23.43;4.60;;;;;;;8.91;100.00;99761.16;5047038;28;20025;-57
2023/12/11 07:28:38;;;;;;;21.88;4.22;;;;;;;8.94;100.00;99758.22;5049383;28;20726;-57
2023/12/11 07:31:05;;;;;;;20.25;4.45;;;;;;;8.89;100.00;99752.50;5046006;28;20245;-56
2023/12/11 07:33:31;;;;;;;18.50;4.57;;;;;;;8.89;100.00;99763.09;5049076;28;20025;-56
2023/12/11 07:35:57;;;;;;;17.13;4.00;;;;;;;8.87;100.00;99770.31;5052650;28;20059;-58
2023/12/11 07:38:22;;;;;;;22.35;4.78;;;;;;;8.85;100.00;99780.22;5054778;28;20025;-58
2023/12/11 07:40:48;;;;;;;29.65;4.75;;;;;;;8.80;100.00;99787.72;5046440;28;20092;-59
2023/12/11 07:43:13;;;;;;;19.42;4.10;;;;;;;8.75;100.00;99788.13;5049984;28;20139;-58
2023/12/11 07:45:38;;;;;;;21.10;4.32;;;;;;;8.70;100.00;99795.63;5051295;28;20052;-59
2023/12/11 07:48:04;;;;;;;22.52;4.30;;;;;;;8.67;100.00;99802.00;5049007;28;20041;-59
2023/12/11 07:50:29;;;;;;;18.42;4.50;;;;;;;8.63;100.00;99803.25;5050404;28;20025;-59
2023/12/11 07:52:55;;;;;;;26.13;4.32;;;;;;;8.58;100.00;99800.16;5049774;28;20021;-60
2023/12/11 07:55:20;;;;;;;28.05;4.47;;;;;;;8.57;100.00;99814.34;5047100;28;20056;-59
2023/12/11 07:57:45;;;;;;;17.92;3.95;;;;;;;8.51;100.00;99815.72;5051670;28;20036;-59
2023/12/11 08:00:11;;;;;;;19.55;4.25;;;;;;;8.49;100.00;99809.72;5047505;28;20021;-59
2023/12/11 08:02:37;;;;;;;21.25;4.75;;;;;;;8.48;100.00;99823.91;5048007;28;20068;-58
2023/12/11 08:05:03;;;;;;;25.27;4.90;;;;;;;8.49;100.00;99830.03;5045576;28;20430;-59
2023/12/11 08:07:28;;;;;;;20.50;4.47;;;;;;;8.47;100.00;99824.03;5049886;28;20029;-59
2023/12/11 08:09:54;;;;;;;18.75;4.32;;;;;;;8.45;100.00;99829.44;5050936;28;20449;-58
2023/12/11 08:12:19;;;;;;;24.77;4.53;;;;;;;8.45;100.00;99832.09;5047924;28;20021;-58
2023/12/11 08:14:45;;;;;;;24.15;4.55;;;;;;;8.45;100.00;99845.31;5050699;28;20017;-59
2023/12/11 08:17:11;;;;;;;26.10;4.95;;;;;;;8.43;100.00;99851.72;5045688;28;20025;-58
2023/12/11 08:19:36;;;;;;;25.45;4.70;;;;;;;8.44;100.00;99854.25;5050194;28;20013;-58
2023/12/11 08:22:03;;;;;;;20.45;4.78;;;;;;;8.44;100.00;99842.81;5046429;28;20037;-58
2023/12/11 08:24:28;;;;;;;20.02;3.58;;;;;;;8.45;100.00;99852.44;5051002;28;20474;-58
2023/12/11 08:26:54;;;;;;;23.15;4.88;;;;;;;8.46;100.00;99844.38;5051148;28;20037;-58
2023/12/11 08:29:21;;;;;;;20.40;4.30;;;;;;;8.48;100.00;99860.97;5049750;28;20036;-58
2023/12/11 08:31:47;;;;;;;22.20;4.05;;;;;;;8.51;100.00;99862.53;5044925;28;20494;-58
2023/12/11 08:34:12;;;;;;;18.77;4.00;;;;;;;8.53;100.00;99876.47;5049996;28;20024;-57
2023/12/11 08:36:37;;;;;;;20.15;4.05;;;;;;;8.58;100.00;99879.56;5050147;28;20501;-57
2023/12/11 08:39:03;;;;;;;17.35;3.95;;;;;;;8.61;100.00;99878.44;5047567;28;20024;-57
2023/12/11 08:41:28;;;;;;;23.70;4.55;;;;;;;8.63;100.00;99885.31;5052652;28;20032;-58
2023/12/11 08:43:54;;;;;;;18.73;3.72;;;;;;;8.68;100.00;99903.44;5045668;28;20554;-57
2023/12/11 08:46:19;;;;;;;22.10;4.05;;;;;;;8.69;100.00;99921.84;5051135;28;20090;-58
2023/12/11 08:48:45;;;;;;;23.20;3.90;;;;;;;8.71;100.00;99905.84;5049657;28;20535;-57
2023/12/11 08:51:10;;;;;;;19.45;4.30;;;;;;;8.71;100.00;99911.16;5054164;28;20663;-58
2023/12/11 08:53:36;;;;;;;21.67;4.28;;;;;;;8.70;100.00;99912.94;5044995;28;20013;-57
2023/12/11 08:56:01;;;;;;;20.10;4.53;;;;;;;8.69;100.00;99921.00;5050915;28;20039;-57
2023/12/11 08:58:27;;;;;;;24.05;4.30;;;;;;;8.68;100.00;99930.75;5048003;28;20021;-57
2023/12/11 09:00:52;;;;;;;21.55;4.60;;;;;;;8.66;100.00;99945.94;5046796;28;20120;-59
2023/12/11 09:03:17;;;;;;;21.45;4.25;;;;;;;8.62;100.00;99949.78;5049093;28;20044;-60
2023/12/11 09:05:43;;;;;;;24.50;4.43;;;;;;;8.58;100.00;99964.25;5044734;28;20029;-58
2023/12/11 09:08:09;;;;;;;25.25;4.43;;;;;;;8.53;100.00;99971.72;5049359;28;20116;-59
2023/12/11 09:10:38;;;;;;;19.08;4.35;;;;;;;8.48;100.00;99977.41;5049822;28;20033;-58
2023/12/11 09:13:04;;;;;;;24.98;4.78;;;;;;;8.43;100.00;99978.75;5052655;28;20025;-59
2023/12/11 09:15:30;;;;;;;23.52;4.15;;;;;;;8.39;100.00;99982.56;5052838;28;20099;-59
2023/12/11 09:17:55;;;;;;;17.63;3.63;;;;;;;8.36;100.00;99964.28;5052628;28;20421;-59
2023/12/11 09:20:21;;;;;;;19.58;3.65;;;;;;;8.34;100.00;99977.63;5049340;28;20032;-59
2023/12/11 09:22:47;;;;;;;16.40;4.05;;;;;;;8.33;100.00;99984.75;5055575;28;20063;-59
2023/12/11 09:25:13;;;;;;;17.17;3.40;;;;;;;8.32;100.00;99998.94;5047591;28;20029;-60
2023/12/11 09:27:38;;;;;;;15.23;3.65;;;;;;;8.34;100.00;99998.81;5055631;28;20390;-58
2023/12/11 09:30:06;;;;;;;16.95;4.10;;;;;;;8.33;100.00;100005.09;5054830;28;20032;-58
2023/12/11 09:32:31;;;;;;;16.73;3.70;;;;;;;8.33;100.00;100011.19;5053208;28;20062;-58
2023/12/11 09:34:56;;;;;;;11.20;3.05;;;;;;;8.33;100.00;100016.50;5055085;28;20029;-58
2023/12/11 09:37:22;;;;;;;13.05;3.40;;;;;;;8.34;100.00;100028.78;5053248;28;20021;-57
2023/12/11 09:39:48;;;;;;;12.15;2.85;;;;;;;8.36;100.00;100020.72;5060432;28;20017;-58
2023/12/11 09:42:15;;;;;;;13.38;3.10;;;;;;;8.40;100.00;100029.25;5055710;28;20123;-58
2023/12/11 09:44:44;;;;;;;12.43;2.95;;;;;;;8.43;100.00;100029.03;5055307;28;20079;-58
2023/12/11 09:47:14;;;;;;;15.05;3.33;;;;;;;8.44;100.00;100035.97;5057381;28;20052;-59
2023/12/11 09:49:40;;;;;;;12.43;2.92;;;;;;;8.47;100.00;100046.31;5057464;28;20089;-58
2023/12/11 09:52:06;;;;;;;15.40;3.33;;;;;;;8.48;100.00;100048.84;5057077;28;20056;-58
2023/12/11 09:54:31;;;;;;;18.92;4.35;;;;;;;8.51;100.00;100061.84;5057926;28;20032;-58
2023/12/11 09:56:58;;;;;;;17.75;3.30;;;;;;;8.55;100.00;100062.44;5057893;28;20052;-57
2023/12/11 09:59:25;;;;;;;15.20;3.30;;;;;;;8.61;100.00;100066.38;5053016;28;20048;-59
2023/12/11 10:01:51;;;;;;;15.20;3.47;;;;;;;8.65;100.00;100071.31;5052997;28;20029;-58
2023/12/11 10:04:17;;;;;;;16.27;3.28;;;;;;;8.69;100.00;100075.41;5051326;28;20033;-58
2023/12/11 10:06:43;;;;;;;20.38;3.60;;;;;;;8.73;100.00;100085.72;5055816;28;20096;-57
2023/12/11 10:09:26;;;;;;;18.90;3.50;;;;;;;8.75;100.00;100075.88;5056038;28;20041;-58
2023/12/11 10:12:04;;;;;;;19.25;3.55;;;;;;;8.77;100.00;100082.69;5055458;28;20025;-59
2023/12/11 10:14:30;;;;;;;15.70;4.05;;;;;;;8.81;100.00;100088.59;5050495;28;20060;-58
2023/12/11 10:16:57;;;;;;;14.75;3.10;;;;;;;8.86;100.00;100087.25;5054507;28;20108;-58
2023/12/11 10:19:34;;;;;;;18.67;4.25;;;;;;;8.92;100.00;100096.50;5056087;28;20021;-58
2023/12/11 10:22:00;;;;;;;14.20;3.15;;;;;;;8.93;100.00;100098.19;5055265;28;20040;-58
2023/12/11 10:24:26;;;;;;;14.65;3.40;;;;;;;8.96;100.00;100105.91;5055657;28;20029;-58
2023/12/11 10:26:59;;;;;;;14.55;3.10;;;;;;;8.98;100.00;100097.81;5055387;28;20029;-58
2023/12/11 10:29:26;;;;;;;11.85;2.83;;;;;;;8.96;100.00;100103.25;5054606;28;20029;-58
2023/12/11 10:32:00;;;;;;;15.80;3.05;;;;;;;8.97;100.00;100107.56;5056263;28;20036;-58
2023/12/11 10:34:42;;;;;;;12.48;3.28;;;;;;;8.96;100.00;100113.84;5057065;28;20457;-57
2023/12/11 10:37:10;;;;;;;15.98;2.85;;;;;;;8.96;100.00;100131.53;5048539;28;20021;-59
2023/12/11 10:39:35;;;;;;;15.13;3.17;;;;;;;8.96;100.00;100135.03;5055806;28;20036;-58
2023/12/11 10:42:14;;;;;;;10.50;3.20;;;;;;;8.96;100.00;100134.16;5057426;28;20105;-59
2023/12/11 10:44:40;;;;;;;12.20;2.80;;;;;;;8.94;100.00;100133.47;5056287;28;20025;-58
2023/12/11 10:47:07;;;;;;;14.95;3.20;;;;;;;8.94;100.00;100138.75;5057538;28;20029;-59
2023/12/11 10:49:33;;;;;;;14.85;3.08;;;;;;;8.95;100.00;100145.75;5055546;28;20024;-58
2023/12/11 10:52:02;;;;;;;14.18;3.55;;;;;;;8.98;100.00;100143.69;5049814;28;20037;-59
2023/12/11 10:54:27;;;;;;;11.50;3.38;;;;;;;9.02;100.00;100147.75;5052136;28;20043;-59
2023/12/11 10:56:53;;;;;;;15.45;3.60;;;;;;;9.05;100.00;100155.47;5055672;28;20045;-59
2023/12/11 10:59:19;;;;;;;13.98;2.67;;;;;;;9.07;100.00;100155.34;5054665;28;20052;-59
2023/12/11 11:01:48;;;;;;;14.95;3.15;;;;;;;9.10;100.00;100157.75;5057690;28;20024;-58
2023/12/11 11:04:17;;;;;;;13.35;2.90;;;;;;;9.13;100.00;100167.25;5056435;28;20037;-58
2023/12/11 11:06:51;;;;;;;14.90;3.35;;;;;;;9.14;100.00;100164.44;5059594;28;20039;-58
2023/12/11 11:09:29;;;;;;;16.80;3.13;;;;;;;9.19;100.00;100172.03;5057466;28;20112;-58
2023/12/11 11:12:05;;;;;;;13.25;2.75;;;;;;;9.21;100.00;100175.44;5053679;28;20051;-58
2023/12/11 11:14:48;;;;;;;10.98;2.60;;;;;;;9.25;100.00;100175.03;5054942;28;20017;-58
2023/12/11 11:17:14;;;;;;;9.48;2.55;;;;;;;9.26;100.00;100184.66;5057107;28;20111;-58
2023/12/11 11:20:08;;;;;;;12.70;2.75;;;;;;;9.26;100.00;100183.84;5054397;28;20569;-58